Kezdőlap
METAR-TAF:

METAR-TAF

Repülőterek :

Kangirsuk, Québec, Kanada

földrajzi szélesség: 60-01N, földrajzi hosszúság: 070-00W, magasság: 117 m

Jelenlegi meteorológiai megfigyelések

A jelentés 7 órával és 22 perccel ezelõtt készült, 13:00 UTC
Északkeleti szél 18 kt
Hőmérséklet -23°C
Páratartalom 76%
Légköri nyomás 994 hPa
Látótávolság: 6.4 km
Szórványos felhőzet 4000 lábon
Szakadozott felhőzet 16000 lábon
enyhe havazás, alacsony hófúvás

METAR: CYAS 221300Z 04018KT 4SM -SN DRSN SCT040 BKN160 M23/M26 A2935 RMK SC4AC2 SN COV/MUCH LOOSE LAST STFD OBS/NEXT 231300UTC SLP957

Idő: 15:22 (20:22 UTC)


TAF: hiányzik

Meteorológiai megfigyelések és előrejelzések több, mint 4000 repülőtéren (METAR és TAF jelentéseket).

A térképen piros és sárga pontok jelzik az elérhető meteorológiai állomásokat.

Mozgassa az egeret a pont fölött, hogy megjelenjen az állomás neve.

Azután kattintson az időjárási megfigyelések és előrejelzések megtekintéséhez.

A térkép megváltoztatása: kattintson a fekete keresztel jelölt zöld gombra ráközelítéshez, a vonallal jelölt zöld gombra távolításhoz, vagy a zöld nyilakra a szomszédos térképek eléréséhez.


METAR-TAF: